sensor_id;sensor_type;location;lat;lon;timestamp;P1;durP1;ratioP1;P2;durP2;ratioP2
830;SDS011;397;50.564;7.272;2023-06-22T00:02:23;11.60;;;10.70;;
830;SDS011;397;50.564;7.272;2023-06-22T00:04:50;11.73;;;10.73;;
830;SDS011;397;50.564;7.272;2023-06-22T00:07:18;11.27;;;10.37;;
830;SDS011;397;50.564;7.272;2023-06-22T00:09:45;10.67;;;9.87;;
830;SDS011;397;50.564;7.272;2023-06-22T00:12:13;11.17;;;10.17;;
830;SDS011;397;50.564;7.272;2023-06-22T00:14:40;11.47;;;10.47;;
830;SDS011;397;50.564;7.272;2023-06-22T00:17:08;12.03;;;10.97;;
830;SDS011;397;50.564;7.272;2023-06-22T00:19:35;12.33;;;11.17;;
830;SDS011;397;50.564;7.272;2023-06-22T00:22:04;10.73;;;9.83;;
830;SDS011;397;50.564;7.272;2023-06-22T00:24:32;12.27;;;11.17;;
830;SDS011;397;50.564;7.272;2023-06-22T00:26:59;10.17;;;9.33;;
830;SDS011;397;50.564;7.272;2023-06-22T00:29:27;11.13;;;10.13;;
830;SDS011;397;50.564;7.272;2023-06-22T00:31:54;11.43;;;10.47;;
830;SDS011;397;50.564;7.272;2023-06-22T00:34:22;9.20;;;8.40;;
830;SDS011;397;50.564;7.272;2023-06-22T00:36:49;10.13;;;9.23;;
830;SDS011;397;50.564;7.272;2023-06-22T00:39:17;10.87;;;9.00;;
830;SDS011;397;50.564;7.272;2023-06-22T00:41:45;9.03;;;8.30;;
830;SDS011;397;50.564;7.272;2023-06-22T00:44:12;11.27;;;10.30;;
830;SDS011;397;50.564;7.272;2023-06-22T00:46:40;10.50;;;9.60;;
830;SDS011;397;50.564;7.272;2023-06-22T00:49:07;10.43;;;9.60;;
830;SDS011;397;50.564;7.272;2023-06-22T00:51:35;9.97;;;9.07;;
830;SDS011;397;50.564;7.272;2023-06-22T00:54:04;10.93;;;10.03;;
830;SDS011;397;50.564;7.272;2023-06-22T00:56:32;12.07;;;11.07;;
830;SDS011;397;50.564;7.272;2023-06-22T00:59:01;10.93;;;9.93;;
830;SDS011;397;50.564;7.272;2023-06-22T01:01:29;10.60;;;9.60;;
830;SDS011;397;50.564;7.272;2023-06-22T01:03:56;11.03;;;10.00;;
830;SDS011;397;50.564;7.272;2023-06-22T01:06:29;11.67;;;10.67;;
830;SDS011;397;50.564;7.272;2023-06-22T01:09:05;11.03;;;10.13;;
830;SDS011;397;50.564;7.272;2023-06-22T01:11:36;11.40;;;10.33;;
830;SDS011;397;50.564;7.272;2023-06-22T01:14:12;12.17;;;11.17;;
830;SDS011;397;50.564;7.272;2023-06-22T01:16:41;12.07;;;11.07;;
830;SDS011;397;50.564;7.272;2023-06-22T01:19:57;12.03;;;10.90;;
830;SDS011;397;50.564;7.272;2023-06-22T01:21:58;12.47;;;11.30;;
830;SDS011;397;50.564;7.272;2023-06-22T01:24:33;12.10;;;11.10;;
830;SDS011;397;50.564;7.272;2023-06-22T01:27:14;10.30;;;9.50;;
830;SDS011;397;50.564;7.272;2023-06-22T01:29:52;11.63;;;10.53;;
830;SDS011;397;50.564;7.272;2023-06-22T01:32:22;11.00;;;10.00;;
830;SDS011;397;50.564;7.272;2023-06-22T01:34:50;11.83;;;10.83;;
830;SDS011;397;50.564;7.272;2023-06-22T01:37:18;10.97;;;10.10;;
830;SDS011;397;50.564;7.272;2023-06-22T01:39:46;12.07;;;10.97;;
830;SDS011;397;50.564;7.272;2023-06-22T01:42:14;10.50;;;9.60;;
830;SDS011;397;50.564;7.272;2023-06-22T01:44:42;10.00;;;9.10;;
830;SDS011;397;50.564;7.272;2023-06-22T01:47:10;11.93;;;10.73;;
830;SDS011;397;50.564;7.272;2023-06-22T01:49:40;10.70;;;9.80;;
830;SDS011;397;50.564;7.272;2023-06-22T01:52:08;11.63;;;10.67;;
830;SDS011;397;50.564;7.272;2023-06-22T01:54:36;10.77;;;9.87;;
830;SDS011;397;50.564;7.272;2023-06-22T01:57:04;11.40;;;10.50;;
830;SDS011;397;50.564;7.272;2023-06-22T01:59:34;11.97;;;10.87;;
830;SDS011;397;50.564;7.272;2023-06-22T02:02:06;11.37;;;10.27;;
830;SDS011;397;50.564;7.272;2023-06-22T02:04:41;10.60;;;9.70;;
830;SDS011;397;50.564;7.272;2023-06-22T02:07:07;10.30;;;9.40;;
830;SDS011;397;50.564;7.272;2023-06-22T02:09:36;10.73;;;9.70;;
830;SDS011;397;50.564;7.272;2023-06-22T02:12:05;11.13;;;10.23;;
830;SDS011;397;50.564;7.272;2023-06-22T02:14:35;9.70;;;8.80;;
830;SDS011;397;50.564;7.272;2023-06-22T02:17:04;12.97;;;10.40;;
830;SDS011;397;50.564;7.272;2023-06-22T02:19:36;10.60;;;9.70;;
830;SDS011;397;50.564;7.272;2023-06-22T02:22:03;11.60;;;10.57;;
830;SDS011;397;50.564;7.272;2023-06-22T02:24:31;10.90;;;9.80;;
830;SDS011;397;50.564;7.272;2023-06-22T02:26:59;12.50;;;11.40;;
830;SDS011;397;50.564;7.272;2023-06-22T02:29:28;11.43;;;10.53;;
830;SDS011;397;50.564;7.272;2023-06-22T02:31:56;10.50;;;9.60;;
830;SDS011;397;50.564;7.272;2023-06-22T02:34:23;12.07;;;11.07;;
830;SDS011;397;50.564;7.272;2023-06-22T02:36:51;12.20;;;11.20;;
830;SDS011;397;50.564;7.272;2023-06-22T02:39:19;12.13;;;11.00;;
830;SDS011;397;50.564;7.272;2023-06-22T02:41:50;13.30;;;12.10;;
830;SDS011;397;50.564;7.272;2023-06-22T02:44:19;12.63;;;11.53;;
830;SDS011;397;50.564;7.272;2023-06-22T02:46:47;11.90;;;10.90;;
830;SDS011;397;50.564;7.272;2023-06-22T02:49:15;12.50;;;11.50;;
830;SDS011;397;50.564;7.272;2023-06-22T02:51:48;12.27;;;11.20;;
830;SDS011;397;50.564;7.272;2023-06-22T02:54:15;12.67;;;11.43;;
830;SDS011;397;50.564;7.272;2023-06-22T02:56:43;12.90;;;11.80;;
830;SDS011;397;50.564;7.272;2023-06-22T02:59:10;14.30;;;12.87;;
830;SDS011;397;50.564;7.272;2023-06-22T03:01:38;14.10;;;12.20;;
830;SDS011;397;50.564;7.272;2023-06-22T03:04:06;12.10;;;11.10;;
830;SDS011;397;50.564;7.272;2023-06-22T03:06:34;13.07;;;11.87;;
830;SDS011;397;50.564;7.272;2023-06-22T03:09:03;12.97;;;11.43;;
830;SDS011;397;50.564;7.272;2023-06-22T03:11:31;12.40;;;11.27;;
830;SDS011;397;50.564;7.272;2023-06-22T03:14:00;13.10;;;12.00;;
830;SDS011;397;50.564;7.272;2023-06-22T03:16:28;13.00;;;11.97;;
830;SDS011;397;50.564;7.272;2023-06-22T03:18:55;13.23;;;12.23;;
830;SDS011;397;50.564;7.272;2023-06-22T03:21:23;12.60;;;11.60;;
830;SDS011;397;50.564;7.272;2023-06-22T03:23:50;11.60;;;10.60;;
830;SDS011;397;50.564;7.272;2023-06-22T03:26:18;12.97;;;11.80;;
830;SDS011;397;50.564;7.272;2023-06-22T03:28:46;11.73;;;10.73;;
830;SDS011;397;50.564;7.272;2023-06-22T03:31:14;13.33;;;12.23;;
830;SDS011;397;50.564;7.272;2023-06-22T03:33:41;13.00;;;11.90;;
830;SDS011;397;50.564;7.272;2023-06-22T03:36:09;12.50;;;11.40;;
830;SDS011;397;50.564;7.272;2023-06-22T03:38:37;13.63;;;12.40;;
830;SDS011;397;50.564;7.272;2023-06-22T03:41:04;12.80;;;11.80;;
830;SDS011;397;50.564;7.272;2023-06-22T03:43:32;13.90;;;12.80;;
830;SDS011;397;50.564;7.272;2023-06-22T03:45:59;13.57;;;12.37;;
830;SDS011;397;50.564;7.272;2023-06-22T03:48:27;12.70;;;11.60;;
830;SDS011;397;50.564;7.272;2023-06-22T03:50:54;11.93;;;10.93;;
830;SDS011;397;50.564;7.272;2023-06-22T03:53:22;11.33;;;10.33;;
830;SDS011;397;50.564;7.272;2023-06-22T03:55:50;12.53;;;11.57;;
830;SDS011;397;50.564;7.272;2023-06-22T03:58:19;13.90;;;12.60;;
830;SDS011;397;50.564;7.272;2023-06-22T04:00:52;12.73;;;11.53;;
830;SDS011;397;50.564;7.272;2023-06-22T04:03:17;13.50;;;12.40;;
830;SDS011;397;50.564;7.272;2023-06-22T04:05:45;13.50;;;12.40;;
830;SDS011;397;50.564;7.272;2023-06-22T04:08:14;11.87;;;10.87;;
830;SDS011;397;50.564;7.272;2023-06-22T04:10:42;12.10;;;11.00;;
830;SDS011;397;50.564;7.272;2023-06-22T04:13:10;13.70;;;12.50;;
830;SDS011;397;50.564;7.272;2023-06-22T04:15:38;12.83;;;11.50;;
830;SDS011;397;50.564;7.272;2023-06-22T04:18:05;12.07;;;11.07;;
830;SDS011;397;50.564;7.272;2023-06-22T04:20:33;13.00;;;11.30;;
830;SDS011;397;50.564;7.272;2023-06-22T04:23:00;12.33;;;11.23;;
830;SDS011;397;50.564;7.272;2023-06-22T04:25:28;12.37;;;11.37;;
830;SDS011;397;50.564;7.272;2023-06-22T04:27:55;11.43;;;10.43;;
830;SDS011;397;50.564;7.272;2023-06-22T04:30:23;12.83;;;11.57;;
830;SDS011;397;50.564;7.272;2023-06-22T04:32:50;11.50;;;10.50;;
830;SDS011;397;50.564;7.272;2023-06-22T04:35:24;12.10;;;11.10;;
830;SDS011;397;50.564;7.272;2023-06-22T04:37:52;10.87;;;9.97;;
830;SDS011;397;50.564;7.272;2023-06-22T04:40:23;12.40;;;11.40;;
830;SDS011;397;50.564;7.272;2023-06-22T04:42:51;15.73;;;11.30;;
830;SDS011;397;50.564;7.272;2023-06-22T04:45:19;13.20;;;12.00;;
830;SDS011;397;50.564;7.272;2023-06-22T04:47:47;12.40;;;11.20;;
830;SDS011;397;50.564;7.272;2023-06-22T04:50:15;11.90;;;10.80;;
830;SDS011;397;50.564;7.272;2023-06-22T04:52:43;12.60;;;11.40;;
830;SDS011;397;50.564;7.272;2023-06-22T04:55:11;11.40;;;10.17;;
830;SDS011;397;50.564;7.272;2023-06-22T04:57:39;12.17;;;11.07;;
830;SDS011;397;50.564;7.272;2023-06-22T05:00:06;12.47;;;11.37;;
830;SDS011;397;50.564;7.272;2023-06-22T05:02:38;11.43;;;10.17;;
830;SDS011;397;50.564;7.272;2023-06-22T05:05:06;10.50;;;9.70;;
830;SDS011;397;50.564;7.272;2023-06-22T05:07:34;11.60;;;10.47;;
830;SDS011;397;50.564;7.272;2023-06-22T05:10:07;11.40;;;10.30;;
830;SDS011;397;50.564;7.272;2023-06-22T05:12:31;10.20;;;9.30;;
830;SDS011;397;50.564;7.272;2023-06-22T05:14:59;11.03;;;9.70;;
830;SDS011;397;50.564;7.272;2023-06-22T05:17:27;10.77;;;9.70;;
830;SDS011;397;50.564;7.272;2023-06-22T05:19:55;10.40;;;9.37;;
830;SDS011;397;50.564;7.272;2023-06-22T05:22:22;10.83;;;9.20;;
830;SDS011;397;50.564;7.272;2023-06-22T05:24:50;10.33;;;9.40;;
830;SDS011;397;50.564;7.272;2023-06-22T05:27:17;9.63;;;8.77;;
830;SDS011;397;50.564;7.272;2023-06-22T05:29:45;11.10;;;10.20;;
830;SDS011;397;50.564;7.272;2023-06-22T05:32:12;16.60;;;10.80;;
830;SDS011;397;50.564;7.272;2023-06-22T05:34:40;11.60;;;10.50;;
830;SDS011;397;50.564;7.272;2023-06-22T05:37:07;11.03;;;9.90;;
830;SDS011;397;50.564;7.272;2023-06-22T05:39:35;10.83;;;9.93;;
830;SDS011;397;50.564;7.272;2023-06-22T05:42:05;12.00;;;10.80;;
830;SDS011;397;50.564;7.272;2023-06-22T05:44:34;9.73;;;8.73;;
830;SDS011;397;50.564;7.272;2023-06-22T05:47:03;10.53;;;9.33;;
830;SDS011;397;50.564;7.272;2023-06-22T05:49:30;10.57;;;9.77;;
830;SDS011;397;50.564;7.272;2023-06-22T05:51:58;9.63;;;8.80;;
830;SDS011;397;50.564;7.272;2023-06-22T05:54:29;10.90;;;9.90;;
830;SDS011;397;50.564;7.272;2023-06-22T05:56:57;11.20;;;10.20;;
830;SDS011;397;50.564;7.272;2023-06-22T05:59:25;10.90;;;10.00;;
830;SDS011;397;50.564;7.272;2023-06-22T06:01:52;11.07;;;9.93;;
830;SDS011;397;50.564;7.272;2023-06-22T06:04:20;11.33;;;10.33;;
830;SDS011;397;50.564;7.272;2023-06-22T06:06:47;11.70;;;10.33;;
830;SDS011;397;50.564;7.272;2023-06-22T06:09:15;10.60;;;9.70;;
830;SDS011;397;50.564;7.272;2023-06-22T06:11:42;11.40;;;10.23;;
830;SDS011;397;50.564;7.272;2023-06-22T06:14:10;11.63;;;10.63;;
830;SDS011;397;50.564;7.272;2023-06-22T06:16:37;10.53;;;9.37;;
830;SDS011;397;50.564;7.272;2023-06-22T06:19:05;12.63;;;11.30;;
830;SDS011;397;50.564;7.272;2023-06-22T06:21:32;12.17;;;10.33;;
830;SDS011;397;50.564;7.272;2023-06-22T06:24:00;12.13;;;11.00;;
830;SDS011;397;50.564;7.272;2023-06-22T06:26:27;12.23;;;10.90;;
830;SDS011;397;50.564;7.272;2023-06-22T06:28:56;11.23;;;10.23;;
830;SDS011;397;50.564;7.272;2023-06-22T06:31:23;10.33;;;9.33;;
830;SDS011;397;50.564;7.272;2023-06-22T06:33:52;10.23;;;9.30;;
830;SDS011;397;50.564;7.272;2023-06-22T06:36:20;11.30;;;10.10;;
830;SDS011;397;50.564;7.272;2023-06-22T06:38:48;12.00;;;9.60;;
830;SDS011;397;50.564;7.272;2023-06-22T06:41:15;12.80;;;11.43;;
830;SDS011;397;50.564;7.272;2023-06-22T06:43:43;11.57;;;10.67;;
830;SDS011;397;50.564;7.272;2023-06-22T06:46:11;11.67;;;10.60;;
830;SDS011;397;50.564;7.272;2023-06-22T06:48:38;11.83;;;10.07;;
830;SDS011;397;50.564;7.272;2023-06-22T06:51:06;11.27;;;10.17;;
830;SDS011;397;50.564;7.272;2023-06-22T06:53:35;11.47;;;10.50;;
830;SDS011;397;50.564;7.272;2023-06-22T06:56:04;11.43;;;10.43;;
830;SDS011;397;50.564;7.272;2023-06-22T06:58:32;13.13;;;12.03;;
830;SDS011;397;50.564;7.272;2023-06-22T07:00:59;11.47;;;10.50;;
830;SDS011;397;50.564;7.272;2023-06-22T07:03:27;10.33;;;9.43;;
830;SDS011;397;50.564;7.272;2023-06-22T07:05:54;11.43;;;10.40;;
830;SDS011;397;50.564;7.272;2023-06-22T07:08:22;11.07;;;10.10;;
830;SDS011;397;50.564;7.272;2023-06-22T07:10:49;11.37;;;10.20;;
830;SDS011;397;50.564;7.272;2023-06-22T07:13:18;12.10;;;10.37;;
830;SDS011;397;50.564;7.272;2023-06-22T07:15:46;11.07;;;9.97;;
830;SDS011;397;50.564;7.272;2023-06-22T07:18:13;13.00;;;11.90;;
830;SDS011;397;50.564;7.272;2023-06-22T07:20:41;11.03;;;10.13;;
830;SDS011;397;50.564;7.272;2023-06-22T07:23:08;11.50;;;10.50;;
830;SDS011;397;50.564;7.272;2023-06-22T07:25:36;12.03;;;10.93;;
830;SDS011;397;50.564;7.272;2023-06-22T07:28:04;11.27;;;10.37;;
830;SDS011;397;50.564;7.272;2023-06-22T07:30:33;11.20;;;10.20;;
830;SDS011;397;50.564;7.272;2023-06-22T07:33:01;12.17;;;11.17;;
830;SDS011;397;50.564;7.272;2023-06-22T07:35:33;11.50;;;10.50;;
830;SDS011;397;50.564;7.272;2023-06-22T07:38:00;11.90;;;10.90;;
830;SDS011;397;50.564;7.272;2023-06-22T07:40:29;10.80;;;9.90;;
830;SDS011;397;50.564;7.272;2023-06-22T07:42:56;11.77;;;10.67;;
830;SDS011;397;50.564;7.272;2023-06-22T07:45:24;11.80;;;10.80;;
830;SDS011;397;50.564;7.272;2023-06-22T07:47:51;12.37;;;11.10;;
830;SDS011;397;50.564;7.272;2023-06-22T07:50:19;10.87;;;9.87;;
830;SDS011;397;50.564;7.272;2023-06-22T07:52:46;12.17;;;10.87;;
830;SDS011;397;50.564;7.272;2023-06-22T07:55:14;12.20;;;11.20;;
830;SDS011;397;50.564;7.272;2023-06-22T07:57:42;11.43;;;10.43;;
830;SDS011;397;50.564;7.272;2023-06-22T08:00:09;11.00;;;10.10;;
830;SDS011;397;50.564;7.272;2023-06-22T08:02:41;11.77;;;10.77;;
830;SDS011;397;50.564;7.272;2023-06-22T08:05:11;10.70;;;9.80;;
830;SDS011;397;50.564;7.272;2023-06-22T08:07:39;12.40;;;11.10;;
830;SDS011;397;50.564;7.272;2023-06-22T08:10:10;11.70;;;10.60;;
830;SDS011;397;50.564;7.272;2023-06-22T08:12:43;11.23;;;10.33;;
830;SDS011;397;50.564;7.272;2023-06-22T08:15:07;11.37;;;10.47;;
830;SDS011;397;50.564;7.272;2023-06-22T08:17:38;12.17;;;11.27;;
830;SDS011;397;50.564;7.272;2023-06-22T08:20:06;12.23;;;10.93;;
830;SDS011;397;50.564;7.272;2023-06-22T08:22:40;12.50;;;11.30;;
830;SDS011;397;50.564;7.272;2023-06-22T08:25:08;12.63;;;11.50;;
830;SDS011;397;50.564;7.272;2023-06-22T08:27:36;12.83;;;11.63;;
830;SDS011;397;50.564;7.272;2023-06-22T08:30:05;12.23;;;11.17;;
830;SDS011;397;50.564;7.272;2023-06-22T08:32:33;11.20;;;10.10;;
830;SDS011;397;50.564;7.272;2023-06-22T08:35:00;12.03;;;11.07;;
830;SDS011;397;50.564;7.272;2023-06-22T08:37:28;11.57;;;10.57;;
830;SDS011;397;50.564;7.272;2023-06-22T08:40:00;12.00;;;11.10;;
830;SDS011;397;50.564;7.272;2023-06-22T08:42:31;12.60;;;11.50;;
830;SDS011;397;50.564;7.272;2023-06-22T08:44:58;13.07;;;11.73;;
830;SDS011;397;50.564;7.272;2023-06-22T08:47:29;13.00;;;11.73;;
830;SDS011;397;50.564;7.272;2023-06-22T08:49:57;11.40;;;10.27;;
830;SDS011;397;50.564;7.272;2023-06-22T08:52:24;12.00;;;10.90;;
830;SDS011;397;50.564;7.272;2023-06-22T08:54:52;10.30;;;9.40;;
830;SDS011;397;50.564;7.272;2023-06-22T08:57:20;12.20;;;11.10;;
830;SDS011;397;50.564;7.272;2023-06-22T08:59:48;11.73;;;10.83;;
830;SDS011;397;50.564;7.272;2023-06-22T09:02:17;11.33;;;10.30;;
830;SDS011;397;50.564;7.272;2023-06-22T09:04:48;13.73;;;12.53;;
830;SDS011;397;50.564;7.272;2023-06-22T09:07:17;12.77;;;11.70;;
830;SDS011;397;50.564;7.272;2023-06-22T09:09:46;11.87;;;10.83;;
830;SDS011;397;50.564;7.272;2023-06-22T09:12:13;11.43;;;10.37;;
830;SDS011;397;50.564;7.272;2023-06-22T09:14:41;11.70;;;10.70;;
830;SDS011;397;50.564;7.272;2023-06-22T09:17:08;11.87;;;10.77;;
830;SDS011;397;50.564;7.272;2023-06-22T09:19:36;14.70;;;10.87;;
830;SDS011;397;50.564;7.272;2023-06-22T09:22:04;12.47;;;11.37;;
830;SDS011;397;50.564;7.272;2023-06-22T09:24:32;12.47;;;11.37;;
830;SDS011;397;50.564;7.272;2023-06-22T09:27:00;10.43;;;9.60;;
830;SDS011;397;50.564;7.272;2023-06-22T09:29:27;11.57;;;10.57;;
830;SDS011;397;50.564;7.272;2023-06-22T09:31:55;11.77;;;10.77;;
830;SDS011;397;50.564;7.272;2023-06-22T09:34:22;11.40;;;10.50;;
830;SDS011;397;50.564;7.272;2023-06-22T09:36:50;12.03;;;11.03;;
830;SDS011;397;50.564;7.272;2023-06-22T09:39:20;11.00;;;10.10;;
830;SDS011;397;50.564;7.272;2023-06-22T09:41:47;11.27;;;10.07;;
830;SDS011;397;50.564;7.272;2023-06-22T09:44:15;13.50;;;12.30;;
830;SDS011;397;50.564;7.272;2023-06-22T09:46:42;11.93;;;10.87;;
830;SDS011;397;50.564;7.272;2023-06-22T09:49:10;12.43;;;11.40;;
830;SDS011;397;50.564;7.272;2023-06-22T09:51:38;11.87;;;10.57;;
830;SDS011;397;50.564;7.272;2023-06-22T09:54:05;12.23;;;11.23;;
830;SDS011;397;50.564;7.272;2023-06-22T09:56:33;12.97;;;11.77;;
830;SDS011;397;50.564;7.272;2023-06-22T09:59:00;12.90;;;11.70;;
830;SDS011;397;50.564;7.272;2023-06-22T10:01:28;12.57;;;11.50;;
830;SDS011;397;50.564;7.272;2023-06-22T10:03:55;14.17;;;12.70;;
830;SDS011;397;50.564;7.272;2023-06-22T10:06:24;13.30;;;12.20;;
830;SDS011;397;50.564;7.272;2023-06-22T10:08:51;12.90;;;11.70;;
830;SDS011;397;50.564;7.272;2023-06-22T10:11:19;14.20;;;12.77;;
830;SDS011;397;50.564;7.272;2023-06-22T10:13:48;13.57;;;12.20;;
830;SDS011;397;50.564;7.272;2023-06-22T10:16:15;13.93;;;11.33;;
830;SDS011;397;50.564;7.272;2023-06-22T10:18:43;13.23;;;11.90;;
830;SDS011;397;50.564;7.272;2023-06-22T10:21:10;13.10;;;12.10;;
830;SDS011;397;50.564;7.272;2023-06-22T10:23:38;13.23;;;12.13;;
830;SDS011;397;50.564;7.272;2023-06-22T10:26:05;12.53;;;11.53;;
830;SDS011;397;50.564;7.272;2023-06-22T10:28:33;13.57;;;12.57;;
830;SDS011;397;50.564;7.272;2023-06-22T10:31:00;14.50;;;13.03;;
830;SDS011;397;50.564;7.272;2023-06-22T10:33:28;12.47;;;11.13;;
830;SDS011;397;50.564;7.272;2023-06-22T10:35:55;16.73;;;14.40;;
830;SDS011;397;50.564;7.272;2023-06-22T10:38:23;13.80;;;12.63;;
830;SDS011;397;50.564;7.272;2023-06-22T10:40:50;15.00;;;13.70;;
830;SDS011;397;50.564;7.272;2023-06-22T10:43:18;13.93;;;12.63;;
830;SDS011;397;50.564;7.272;2023-06-22T10:45:45;14.37;;;12.97;;
830;SDS011;397;50.564;7.272;2023-06-22T10:48:13;14.00;;;12.80;;
830;SDS011;397;50.564;7.272;2023-06-22T10:50:40;16.17;;;14.47;;
830;SDS011;397;50.564;7.272;2023-06-22T10:53:09;16.90;;;14.97;;
830;SDS011;397;50.564;7.272;2023-06-22T10:55:37;16.53;;;15.20;;
830;SDS011;397;50.564;7.272;2023-06-22T10:58:04;21.30;;;18.50;;
830;SDS011;397;50.564;7.272;2023-06-22T11:00:32;18.40;;;16.27;;
830;SDS011;397;50.564;7.272;2023-06-22T11:03:01;21.40;;;19.13;;
830;SDS011;397;50.564;7.272;2023-06-22T11:05:28;20.83;;;18.47;;
830;SDS011;397;50.564;7.272;2023-06-22T11:07:56;24.30;;;19.07;;
830;SDS011;397;50.564;7.272;2023-06-22T11:10:23;24.43;;;21.80;;
830;SDS011;397;50.564;7.272;2023-06-22T11:12:52;22.40;;;20.20;;
830;SDS011;397;50.564;7.272;2023-06-22T11:15:21;20.73;;;18.70;;
830;SDS011;397;50.564;7.272;2023-06-22T11:17:48;14.90;;;13.60;;
830;SDS011;397;50.564;7.272;2023-06-22T11:20:16;11.20;;;9.00;;
830;SDS011;397;50.564;7.272;2023-06-22T11:22:43;8.20;;;6.60;;
830;SDS011;397;50.564;7.272;2023-06-22T11:25:11;9.47;;;7.50;;
830;SDS011;397;50.564;7.272;2023-06-22T11:27:38;10.67;;;8.30;;
830;SDS011;397;50.564;7.272;2023-06-22T11:30:06;7.70;;;6.90;;
830;SDS011;397;50.564;7.272;2023-06-22T11:32:34;8.10;;;4.90;;
830;SDS011;397;50.564;7.272;2023-06-22T11:35:02;7.70;;;4.67;;
830;SDS011;397;50.564;7.272;2023-06-22T11:37:29;6.47;;;3.90;;
830;SDS011;397;50.564;7.272;2023-06-22T11:39:57;9.90;;;5.40;;
830;SDS011;397;50.564;7.272;2023-06-22T11:42:24;8.37;;;5.57;;
830;SDS011;397;50.564;7.272;2023-06-22T11:44:52;7.33;;;4.40;;
830;SDS011;397;50.564;7.272;2023-06-22T11:47:19;6.53;;;4.57;;
830;SDS011;397;50.564;7.272;2023-06-22T11:49:47;6.60;;;5.23;;
830;SDS011;397;50.564;7.272;2023-06-22T11:52:14;6.73;;;4.63;;
830;SDS011;397;50.564;7.272;2023-06-22T11:54:43;6.90;;;4.87;;
830;SDS011;397;50.564;7.272;2023-06-22T11:57:11;8.20;;;5.63;;
830;SDS011;397;50.564;7.272;2023-06-22T11:59:39;6.57;;;5.90;;
830;SDS011;397;50.564;7.272;2023-06-22T12:02:06;7.47;;;6.30;;
830;SDS011;397;50.564;7.272;2023-06-22T12:04:35;7.17;;;6.20;;
830;SDS011;397;50.564;7.272;2023-06-22T12:07:03;7.70;;;6.90;;
830;SDS011;397;50.564;7.272;2023-06-22T12:09:31;8.27;;;7.10;;
830;SDS011;397;50.564;7.272;2023-06-22T12:11:58;8.70;;;6.87;;
830;SDS011;397;50.564;7.272;2023-06-22T12:14:26;8.47;;;6.67;;
830;SDS011;397;50.564;7.272;2023-06-22T12:16:53;7.70;;;6.73;;
830;SDS011;397;50.564;7.272;2023-06-22T12:19:21;8.10;;;7.30;;
830;SDS011;397;50.564;7.272;2023-06-22T12:21:48;7.80;;;7.00;;
830;SDS011;397;50.564;7.272;2023-06-22T12:24:16;8.63;;;6.73;;
830;SDS011;397;50.564;7.272;2023-06-22T12:26:43;10.43;;;7.73;;
830;SDS011;397;50.564;7.272;2023-06-22T12:29:11;9.63;;;7.60;;
830;SDS011;397;50.564;7.272;2023-06-22T12:31:38;11.40;;;7.93;;
830;SDS011;397;50.564;7.272;2023-06-22T12:34:07;8.20;;;7.10;;
830;SDS011;397;50.564;7.272;2023-06-22T12:36:34;8.90;;;8.07;;
830;SDS011;397;50.564;7.272;2023-06-22T12:39:02;11.03;;;7.40;;
830;SDS011;397;50.564;7.272;2023-06-22T12:41:30;9.50;;;7.57;;
830;SDS011;397;50.564;7.272;2023-06-22T12:43:57;8.00;;;6.40;;
830;SDS011;397;50.564;7.272;2023-06-22T12:46:25;8.20;;;7.30;;
830;SDS011;397;50.564;7.272;2023-06-22T12:48:52;14.53;;;8.50;;
830;SDS011;397;50.564;7.272;2023-06-22T12:51:20;8.37;;;6.70;;
830;SDS011;397;50.564;7.272;2023-06-22T12:53:48;8.50;;;5.60;;
830;SDS011;397;50.564;7.272;2023-06-22T12:58:49;6.43;;;5.43;;
830;SDS011;397;50.564;7.272;2023-06-22T13:01:16;6.87;;;5.57;;
830;SDS011;397;50.564;7.272;2023-06-22T13:03:44;7.13;;;5.20;;
830;SDS011;397;50.564;7.272;2023-06-22T13:06:11;5.63;;;5.03;;
830;SDS011;397;50.564;7.272;2023-06-22T13:08:39;6.33;;;5.37;;
830;SDS011;397;50.564;7.272;2023-06-22T13:11:07;8.63;;;6.13;;
830;SDS011;397;50.564;7.272;2023-06-22T13:13:34;6.50;;;5.90;;
830;SDS011;397;50.564;7.272;2023-06-22T13:16:02;7.10;;;6.00;;
830;SDS011;397;50.564;7.272;2023-06-22T13:18:29;6.73;;;5.83;;
830;SDS011;397;50.564;7.272;2023-06-22T13:20:57;6.60;;;5.10;;
830;SDS011;397;50.564;7.272;2023-06-22T13:23:25;7.43;;;6.10;;
830;SDS011;397;50.564;7.272;2023-06-22T13:25:53;6.60;;;5.90;;
830;SDS011;397;50.564;7.272;2023-06-22T13:28:20;6.60;;;5.47;;
830;SDS011;397;50.564;7.272;2023-06-22T13:30:48;7.20;;;6.03;;
830;SDS011;397;50.564;7.272;2023-06-22T13:33:16;7.40;;;5.53;;
830;SDS011;397;50.564;7.272;2023-06-22T13:35:43;9.50;;;6.57;;
830;SDS011;397;50.564;7.272;2023-06-22T13:38:11;8.90;;;6.00;;
830;SDS011;397;50.564;7.272;2023-06-22T13:40:38;6.87;;;6.17;;
830;SDS011;397;50.564;7.272;2023-06-22T13:43:06;7.53;;;6.07;;
830;SDS011;397;50.564;7.272;2023-06-22T13:45:33;6.80;;;6.20;;
830;SDS011;397;50.564;7.272;2023-06-22T13:48:01;6.83;;;5.93;;
830;SDS011;397;50.564;7.272;2023-06-22T13:50:29;8.57;;;7.03;;
830;SDS011;397;50.564;7.272;2023-06-22T13:52:56;8.27;;;7.40;;
830;SDS011;397;50.564;7.272;2023-06-22T13:55:24;8.50;;;6.87;;
830;SDS011;397;50.564;7.272;2023-06-22T13:57:52;7.63;;;6.93;;
830;SDS011;397;50.564;7.272;2023-06-22T14:00:19;7.10;;;6.43;;
830;SDS011;397;50.564;7.272;2023-06-22T14:02:47;8.70;;;7.83;;
830;SDS011;397;50.564;7.272;2023-06-22T14:05:14;9.37;;;8.33;;
830;SDS011;397;50.564;7.272;2023-06-22T14:07:42;10.03;;;8.97;;
830;SDS011;397;50.564;7.272;2023-06-22T14:10:09;9.87;;;8.47;;
830;SDS011;397;50.564;7.272;2023-06-22T14:12:37;9.97;;;9.17;;
830;SDS011;397;50.564;7.272;2023-06-22T14:15:05;14.77;;;11.10;;
830;SDS011;397;50.564;7.272;2023-06-22T14:17:53;12.10;;;11.00;;
830;SDS011;397;50.564;7.272;2023-06-22T14:20:21;10.70;;;9.67;;
830;SDS011;397;50.564;7.272;2023-06-22T14:22:48;11.80;;;10.70;;
830;SDS011;397;50.564;7.272;2023-06-22T14:25:16;13.70;;;12.30;;
830;SDS011;397;50.564;7.272;2023-06-22T14:27:43;14.70;;;12.80;;
830;SDS011;397;50.564;7.272;2023-06-22T14:30:11;14.30;;;13.00;;
830;SDS011;397;50.564;7.272;2023-06-22T14:32:38;14.20;;;12.77;;
830;SDS011;397;50.564;7.272;2023-06-22T14:35:06;17.43;;;15.60;;
830;SDS011;397;50.564;7.272;2023-06-22T14:40:20;14.50;;;13.00;;
830;SDS011;397;50.564;7.272;2023-06-22T14:42:48;13.93;;;11.53;;
830;SDS011;397;50.564;7.272;2023-06-22T14:45:15;13.07;;;11.73;;
830;SDS011;397;50.564;7.272;2023-06-22T14:47:43;11.03;;;9.30;;
830;SDS011;397;50.564;7.272;2023-06-22T14:50:10;10.03;;;8.37;;
830;SDS011;397;50.564;7.272;2023-06-22T14:52:38;12.37;;;8.80;;
830;SDS011;397;50.564;7.272;2023-06-22T14:55:05;14.00;;;6.20;;
830;SDS011;397;50.564;7.272;2023-06-22T14:57:33;9.50;;;6.27;;
830;SDS011;397;50.564;7.272;2023-06-22T15:00:01;8.37;;;6.67;;
830;SDS011;397;50.564;7.272;2023-06-22T15:02:29;8.10;;;6.87;;
830;SDS011;397;50.564;7.272;2023-06-22T15:04:56;11.40;;;6.50;;
830;SDS011;397;50.564;7.272;2023-06-22T15:07:24;11.20;;;8.17;;
830;SDS011;397;50.564;7.272;2023-06-22T15:09:51;12.93;;;7.20;;
830;SDS011;397;50.564;7.272;2023-06-22T15:12:19;8.00;;;6.43;;
830;SDS011;397;50.564;7.272;2023-06-22T15:14:46;8.80;;;6.20;;
830;SDS011;397;50.564;7.272;2023-06-22T15:17:14;12.30;;;5.93;;
830;SDS011;397;50.564;7.272;2023-06-22T15:19:41;10.07;;;5.93;;
830;SDS011;397;50.564;7.272;2023-06-22T15:22:09;11.67;;;5.53;;
830;SDS011;397;50.564;7.272;2023-06-22T15:24:36;12.33;;;6.17;;
830;SDS011;397;50.564;7.272;2023-06-22T15:27:04;8.10;;;4.50;;
830;SDS011;397;50.564;7.272;2023-06-22T15:29:31;8.50;;;5.20;;
830;SDS011;397;50.564;7.272;2023-06-22T15:31:59;8.50;;;5.50;;
830;SDS011;397;50.564;7.272;2023-06-22T15:34:27;12.97;;;5.43;;
830;SDS011;397;50.564;7.272;2023-06-22T15:36:55;8.17;;;5.00;;